メインページ
METAR-TAF:

METAR-TAF

空港 :

フォス・ド・イグアス国際空港

フォス・ド・イグアス, パラナ州, ブラジル

緯度: 25-31S, 経度: 054-35W, 海抜: 180m

現時点の気象観測

当レポートは45分前の11:00(UTC)に作成
南/南東の風 2kt
気温 8°C
湿度 100%
気圧
視程: 0150m
高度100ftの千切れ雲あり

METAR: SBFI 221100Z 16002KT 0150 R14/0400 R32/P2000 FG BKN001 08/08 Q1 021

時間: 08:45 (11:45 UTC)

予報

当レポートは2時間45分前の09:00(UTC)に作成
予報は22日の 12時(UTC)から 23日の 12時(UTC)まで有効
の風 5kt
視程10km以上
1,500メートル以下は雲なし、積乱雲なし
22日の 14時(UTC)から 22日の 16時(UTC)まで徐々に
南西の風 6kt
23日の 00時(UTC)から 23日の 02時(UTC)まで徐々に
の風 4kt
確率 40%
23日の 07時(UTC)から 23日の 11時(UTC)まで
視程: 0600m
高度200ftの千切れ雲あり

TAF: SBFI 220900Z 2212/2312 18005KT CAVOK TX20/2218Z TN08/2309Z BECMG 2214/2216 23006KT BECMG 2300/2302 18004KT PROB40 2307/2311 0600 FG BKN002 RMK PDJ

4,000以上の空港の気象観測と天気予報(METAR報とTAF報)

利用可能な観測所は地図上に黄色い丸と赤い丸で示す。

丸の上にカーソルを重ねると観測所名を参照できる。

次にクリックすると気象観測と天気予報を参照できる。

マップの切り替え:黒色「×」印の緑ボタンをクリックして拡大、「-」印の緑ボタンをクリックして縮小、緑色の三角印をクリックして隣りの地図に切り替え


METAR-TAF: